Airfield :
LOGIN :

Register | Disclaimer

   EN    FR    IT 

 










Legend :    VFR   Marginal VFR   IFR   Intensive IFR   Very Intensive IFR
Visi :
Ceiling :
>= 8 km
>= 3000ft
5 to 8 km
1000 to 3000 ft
1500m to 5 km
500 to 1000 ft
800 to 1500m
200 to 500 ft
< 800m
< 200 ft
Symbols :   Thunderstorms  Fog  Heavy snow  Heavy precipitations  Wind > 20 kt
SIGMETs :     Misc.  Thunderstorms  Icing  Turbulence  Mountain Waves  Volcanic Ashes






- Airport Elevation : 135 ft
- IATA code : BOJ


LBBG - Burgas

CURRENT METAR :
  • 191900Z 10006KT 7000 SCT006 07/07 Q1018 NOSIG

EXPIRED METARs :
  • 191830Z 11005KT 7000 FEW006 08/07 Q1018 NOSIG
  • 191800Z 13006KT 8000 FEW006 08/07 Q1018 NOSIG
  • 191730Z 13007KT 8000 NSC 07/07 Q1018 NOSIG
  • 191700Z 13007KT 8000 NSC 08/07 Q1018 NOSIG
  • 191630Z 13007KT 9000 NSC 08/07 Q1018 NOSIG

TAF TAF LBBG
Valid from the 19 at 18:00 until the 20 at 18:00 UTC


191700Z 1918/2018 VRB04KT 7000 SCT030 BKN045
TEMPO 2000/2005 3000 BR
TEMPO 2005/2017 4000 RA BKN010 OVC030
BECMG 2008/2010 03010KT



MET'MAP, your aeronautical weather chart ! - Copyright ORBIFLY December 2007 - Disclaimer

ORBIFLY MET'MAP TEAM :

Programming & Development : Alexandra Zaïnal
Concept & original design : Baudouin d'Aumeries
Assistance for programming : Marc-Olivier Méhu
Technical & hardware support : Manuel Goepfert

Contact : metmap@orbifly.com




SOURCES & CREDITS :

   NOAA